sensor_id;sensor_type;location;lat;lon;timestamp;temperature;humidity
22742;DHT22;11538;48.884;8.696;2023-04-16T00:02:26;9.50;99.90
22742;DHT22;11538;48.884;8.696;2023-04-16T00:04:53;9.50;99.90
22742;DHT22;11538;48.884;8.696;2023-04-16T00:07:20;9.50;99.90
22742;DHT22;11538;48.884;8.696;2023-04-16T00:09:47;9.50;99.90
22742;DHT22;11538;48.884;8.696;2023-04-16T00:12:14;9.50;99.90
22742;DHT22;11538;48.884;8.696;2023-04-16T00:14:41;9.50;99.90
22742;DHT22;11538;48.884;8.696;2023-04-16T00:17:09;9.50;99.90
22742;DHT22;11538;48.884;8.696;2023-04-16T00:19:37;9.50;99.90
22742;DHT22;11538;48.884;8.696;2023-04-16T00:22:04;9.50;99.90
22742;DHT22;11538;48.884;8.696;2023-04-16T00:24:31;9.50;99.90
22742;DHT22;11538;48.884;8.696;2023-04-16T00:26:58;9.50;99.90
22742;DHT22;11538;48.884;8.696;2023-04-16T00:29:25;9.50;99.90
22742;DHT22;11538;48.884;8.696;2023-04-16T00:31:55;9.50;99.90
22742;DHT22;11538;48.884;8.696;2023-04-16T00:34:22;9.50;99.90
22742;DHT22;11538;48.884;8.696;2023-04-16T00:36:49;9.50;99.90
22742;DHT22;11538;48.884;8.696;2023-04-16T00:39:15;9.50;99.90
22742;DHT22;11538;48.884;8.696;2023-04-16T00:41:43;9.40;99.90
22742;DHT22;11538;48.884;8.696;2023-04-16T00:44:10;9.40;99.90
22742;DHT22;11538;48.884;8.696;2023-04-16T00:46:37;9.40;99.90
22742;DHT22;11538;48.884;8.696;2023-04-16T00:49:04;9.40;99.90
22742;DHT22;11538;48.884;8.696;2023-04-16T00:51:31;9.40;99.90
22742;DHT22;11538;48.884;8.696;2023-04-16T00:53:58;9.40;99.90
22742;DHT22;11538;48.884;8.696;2023-04-16T00:56:25;9.40;99.90
22742;DHT22;11538;48.884;8.696;2023-04-16T00:58:54;9.30;99.90
22742;DHT22;11538;48.884;8.696;2023-04-16T01:01:22;9.30;99.90
22742;DHT22;11538;48.884;8.696;2023-04-16T01:03:49;9.30;99.90
22742;DHT22;11538;48.884;8.696;2023-04-16T01:06:17;9.30;99.90
22742;DHT22;11538;48.884;8.696;2023-04-16T01:08:45;9.30;99.90
22742;DHT22;11538;48.884;8.696;2023-04-16T01:11:14;9.30;99.90
22742;DHT22;11538;48.884;8.696;2023-04-16T01:13:41;9.30;99.90
22742;DHT22;11538;48.884;8.696;2023-04-16T01:16:10;9.30;99.90
22742;DHT22;11538;48.884;8.696;2023-04-16T01:18:38;9.30;99.90
22742;DHT22;11538;48.884;8.696;2023-04-16T01:21:05;9.30;99.90
22742;DHT22;11538;48.884;8.696;2023-04-16T01:23:32;9.30;99.90
22742;DHT22;11538;48.884;8.696;2023-04-16T01:26:00;9.30;99.90
22742;DHT22;11538;48.884;8.696;2023-04-16T01:28:26;9.30;99.90
22742;DHT22;11538;48.884;8.696;2023-04-16T01:30:53;9.30;99.90
22742;DHT22;11538;48.884;8.696;2023-04-16T01:33:20;9.30;99.90
22742;DHT22;11538;48.884;8.696;2023-04-16T01:35:47;9.30;99.90
22742;DHT22;11538;48.884;8.696;2023-04-16T01:38:14;9.30;99.90
22742;DHT22;11538;48.884;8.696;2023-04-16T01:40:42;9.30;99.90
22742;DHT22;11538;48.884;8.696;2023-04-16T01:43:09;9.30;99.90
22742;DHT22;11538;48.884;8.696;2023-04-16T01:45:35;9.30;99.90
22742;DHT22;11538;48.884;8.696;2023-04-16T01:48:03;9.30;99.90
22742;DHT22;11538;48.884;8.696;2023-04-16T01:50:30;9.30;99.90
22742;DHT22;11538;48.884;8.696;2023-04-16T01:52:57;9.30;99.90
22742;DHT22;11538;48.884;8.696;2023-04-16T01:55:24;9.20;99.90
22742;DHT22;11538;48.884;8.696;2023-04-16T01:57:52;9.20;99.90
22742;DHT22;11538;48.884;8.696;2023-04-16T02:00:19;9.20;99.90
22742;DHT22;11538;48.884;8.696;2023-04-16T02:02:46;9.20;99.90
22742;DHT22;11538;48.884;8.696;2023-04-16T02:05:15;9.20;99.90
22742;DHT22;11538;48.884;8.696;2023-04-16T02:07:43;9.20;99.90
22742;DHT22;11538;48.884;8.696;2023-04-16T02:10:10;9.20;99.90
22742;DHT22;11538;48.884;8.696;2023-04-16T02:12:37;9.20;99.90
22742;DHT22;11538;48.884;8.696;2023-04-16T02:15:04;9.20;99.90
22742;DHT22;11538;48.884;8.696;2023-04-16T02:17:32;9.20;99.90
22742;DHT22;11538;48.884;8.696;2023-04-16T02:19:58;9.20;99.90
22742;DHT22;11538;48.884;8.696;2023-04-16T02:22:25;9.20;99.90
22742;DHT22;11538;48.884;8.696;2023-04-16T02:24:52;9.20;99.90
22742;DHT22;11538;48.884;8.696;2023-04-16T02:27:19;9.20;99.90
22742;DHT22;11538;48.884;8.696;2023-04-16T02:29:46;9.20;99.90
22742;DHT22;11538;48.884;8.696;2023-04-16T02:32:13;9.20;99.90
22742;DHT22;11538;48.884;8.696;2023-04-16T02:34:40;9.20;99.90
22742;DHT22;11538;48.884;8.696;2023-04-16T02:37:08;9.20;99.90
22742;DHT22;11538;48.884;8.696;2023-04-16T02:39:34;9.20;99.90
22742;DHT22;11538;48.884;8.696;2023-04-16T02:42:01;9.20;99.90
22742;DHT22;11538;48.884;8.696;2023-04-16T02:44:28;9.20;99.90
22742;DHT22;11538;48.884;8.696;2023-04-16T02:46:55;9.20;99.90
22742;DHT22;11538;48.884;8.696;2023-04-16T02:49:22;9.20;99.90
22742;DHT22;11538;48.884;8.696;2023-04-16T02:51:49;9.20;99.90
22742;DHT22;11538;48.884;8.696;2023-04-16T02:54:16;9.20;99.90
22742;DHT22;11538;48.884;8.696;2023-04-16T02:56:42;9.20;99.90
22742;DHT22;11538;48.884;8.696;2023-04-16T02:59:09;9.20;99.90
22742;DHT22;11538;48.884;8.696;2023-04-16T03:01:36;9.20;99.90
22742;DHT22;11538;48.884;8.696;2023-04-16T03:04:03;9.20;99.90
22742;DHT22;11538;48.884;8.696;2023-04-16T03:06:31;9.20;99.90
22742;DHT22;11538;48.884;8.696;2023-04-16T03:08:58;9.20;99.90
22742;DHT22;11538;48.884;8.696;2023-04-16T03:11:25;9.10;99.90
22742;DHT22;11538;48.884;8.696;2023-04-16T03:13:51;9.10;99.90
22742;DHT22;11538;48.884;8.696;2023-04-16T03:16:19;9.20;99.90
22742;DHT22;11538;48.884;8.696;2023-04-16T03:18:46;9.20;99.90
22742;DHT22;11538;48.884;8.696;2023-04-16T03:21:13;9.20;99.90
22742;DHT22;11538;48.884;8.696;2023-04-16T03:23:39;9.20;99.90
22742;DHT22;11538;48.884;8.696;2023-04-16T03:26:06;9.20;99.90
22742;DHT22;11538;48.884;8.696;2023-04-16T03:28:33;9.20;99.90
22742;DHT22;11538;48.884;8.696;2023-04-16T03:31:00;9.20;99.90
22742;DHT22;11538;48.884;8.696;2023-04-16T03:33:27;9.20;99.90
22742;DHT22;11538;48.884;8.696;2023-04-16T03:35:55;9.20;99.90
22742;DHT22;11538;48.884;8.696;2023-04-16T03:38:23;9.20;99.90
22742;DHT22;11538;48.884;8.696;2023-04-16T03:40:53;9.20;99.90
22742;DHT22;11538;48.884;8.696;2023-04-16T03:43:20;9.20;99.90
22742;DHT22;11538;48.884;8.696;2023-04-16T03:45:47;9.20;99.90
22742;DHT22;11538;48.884;8.696;2023-04-16T03:48:14;9.20;99.90
22742;DHT22;11538;48.884;8.696;2023-04-16T03:50:44;9.20;99.90
22742;DHT22;11538;48.884;8.696;2023-04-16T03:53:13;9.10;99.90
22742;DHT22;11538;48.884;8.696;2023-04-16T03:55:41;9.10;99.90
22742;DHT22;11538;48.884;8.696;2023-04-16T03:58:08;9.10;99.90
22742;DHT22;11538;48.884;8.696;2023-04-16T04:00:35;9.10;99.90
22742;DHT22;11538;48.884;8.696;2023-04-16T04:03:02;9.10;99.90
22742;DHT22;11538;48.884;8.696;2023-04-16T04:05:29;9.10;99.90
22742;DHT22;11538;48.884;8.696;2023-04-16T04:07:56;9.10;99.90
22742;DHT22;11538;48.884;8.696;2023-04-16T04:10:23;9.10;99.90
22742;DHT22;11538;48.884;8.696;2023-04-16T04:12:50;9.10;99.90
22742;DHT22;11538;48.884;8.696;2023-04-16T04:15:17;9.10;99.90
22742;DHT22;11538;48.884;8.696;2023-04-16T04:17:43;9.10;99.90
22742;DHT22;11538;48.884;8.696;2023-04-16T04:20:11;9.10;99.90
22742;DHT22;11538;48.884;8.696;2023-04-16T04:22:38;9.10;99.90
22742;DHT22;11538;48.884;8.696;2023-04-16T04:25:05;9.10;99.90
22742;DHT22;11538;48.884;8.696;2023-04-16T04:27:32;9.10;99.90
22742;DHT22;11538;48.884;8.696;2023-04-16T04:29:59;9.10;99.90
22742;DHT22;11538;48.884;8.696;2023-04-16T04:32:26;9.10;99.90
22742;DHT22;11538;48.884;8.696;2023-04-16T04:34:53;9.10;99.90
22742;DHT22;11538;48.884;8.696;2023-04-16T04:37:20;9.10;99.90
22742;DHT22;11538;48.884;8.696;2023-04-16T04:39:46;9.10;99.90
22742;DHT22;11538;48.884;8.696;2023-04-16T04:42:16;9.10;99.90
22742;DHT22;11538;48.884;8.696;2023-04-16T04:44:47;9.20;99.90
22742;DHT22;11538;48.884;8.696;2023-04-16T04:47:14;9.20;99.90
22742;DHT22;11538;48.884;8.696;2023-04-16T04:49:40;9.20;99.90
22742;DHT22;11538;48.884;8.696;2023-04-16T04:52:07;9.20;99.90
22742;DHT22;11538;48.884;8.696;2023-04-16T04:54:34;9.20;99.90
22742;DHT22;11538;48.884;8.696;2023-04-16T04:57:01;9.20;99.90
22742;DHT22;11538;48.884;8.696;2023-04-16T04:59:28;9.20;99.90
22742;DHT22;11538;48.884;8.696;2023-04-16T05:01:55;9.20;99.90
22742;DHT22;11538;48.884;8.696;2023-04-16T05:04:22;9.30;99.90
22742;DHT22;11538;48.884;8.696;2023-04-16T05:06:48;9.20;99.90
22742;DHT22;11538;48.884;8.696;2023-04-16T05:09:15;9.30;99.90
22742;DHT22;11538;48.884;8.696;2023-04-16T05:11:42;9.30;99.90
22742;DHT22;11538;48.884;8.696;2023-04-16T05:14:09;9.30;99.90
22742;DHT22;11538;48.884;8.696;2023-04-16T05:16:36;9.30;99.90
22742;DHT22;11538;48.884;8.696;2023-04-16T05:19:04;9.30;99.90
22742;DHT22;11538;48.884;8.696;2023-04-16T05:21:30;9.30;99.90
22742;DHT22;11538;48.884;8.696;2023-04-16T05:23:57;9.30;99.90
22742;DHT22;11538;48.884;8.696;2023-04-16T05:26:24;9.30;99.90
22742;DHT22;11538;48.884;8.696;2023-04-16T05:28:51;9.30;99.90
22742;DHT22;11538;48.884;8.696;2023-04-16T05:31:18;9.30;99.90
22742;DHT22;11538;48.884;8.696;2023-04-16T05:33:45;9.30;99.90
22742;DHT22;11538;48.884;8.696;2023-04-16T05:36:12;9.30;99.90
22742;DHT22;11538;48.884;8.696;2023-04-16T05:38:39;9.30;99.90
22742;DHT22;11538;48.884;8.696;2023-04-16T05:41:06;9.30;99.90
22742;DHT22;11538;48.884;8.696;2023-04-16T05:43:32;9.30;99.90
22742;DHT22;11538;48.884;8.696;2023-04-16T05:45:59;9.30;99.90
22742;DHT22;11538;48.884;8.696;2023-04-16T05:48:26;9.30;99.90
22742;DHT22;11538;48.884;8.696;2023-04-16T05:50:53;9.30;99.90
22742;DHT22;11538;48.884;8.696;2023-04-16T05:53:20;9.40;99.90
22742;DHT22;11538;48.884;8.696;2023-04-16T05:55:47;9.30;99.90
22742;DHT22;11538;48.884;8.696;2023-04-16T05:58:14;9.30;99.90
22742;DHT22;11538;48.884;8.696;2023-04-16T06:00:41;9.40;99.90
22742;DHT22;11538;48.884;8.696;2023-04-16T06:03:08;9.40;99.90
22742;DHT22;11538;48.884;8.696;2023-04-16T06:05:35;9.40;99.90
22742;DHT22;11538;48.884;8.696;2023-04-16T06:08:02;9.30;99.90
22742;DHT22;11538;48.884;8.696;2023-04-16T06:10:29;9.40;99.90
22742;DHT22;11538;48.884;8.696;2023-04-16T06:12:56;9.30;99.90
22742;DHT22;11538;48.884;8.696;2023-04-16T06:15:23;9.30;99.90
22742;DHT22;11538;48.884;8.696;2023-04-16T06:17:49;9.40;99.90
22742;DHT22;11538;48.884;8.696;2023-04-16T06:20:16;9.40;99.90
22742;DHT22;11538;48.884;8.696;2023-04-16T06:22:43;9.40;99.90
22742;DHT22;11538;48.884;8.696;2023-04-16T06:25:10;9.40;99.90
22742;DHT22;11538;48.884;8.696;2023-04-16T06:27:37;9.40;99.90
22742;DHT22;11538;48.884;8.696;2023-04-16T06:30:04;9.40;99.90
22742;DHT22;11538;48.884;8.696;2023-04-16T06:32:36;9.40;99.90
22742;DHT22;11538;48.884;8.696;2023-04-16T06:35:04;9.40;99.90
22742;DHT22;11538;48.884;8.696;2023-04-16T06:37:31;9.40;99.90
22742;DHT22;11538;48.884;8.696;2023-04-16T06:39:58;9.40;99.90
22742;DHT22;11538;48.884;8.696;2023-04-16T06:42:24;9.40;99.90
22742;DHT22;11538;48.884;8.696;2023-04-16T06:44:51;9.40;99.90
22742;DHT22;11538;48.884;8.696;2023-04-16T06:47:18;9.40;99.90
22742;DHT22;11538;48.884;8.696;2023-04-16T06:49:45;9.40;99.90
22742;DHT22;11538;48.884;8.696;2023-04-16T06:52:12;9.40;99.90
22742;DHT22;11538;48.884;8.696;2023-04-16T06:54:39;9.40;99.90
22742;DHT22;11538;48.884;8.696;2023-04-16T06:57:06;9.40;99.90
22742;DHT22;11538;48.884;8.696;2023-04-16T06:59:33;9.50;99.90
22742;DHT22;11538;48.884;8.696;2023-04-16T07:02:00;9.50;99.90
22742;DHT22;11538;48.884;8.696;2023-04-16T07:04:27;9.50;99.90
22742;DHT22;11538;48.884;8.696;2023-04-16T07:06:54;9.50;99.90
22742;DHT22;11538;48.884;8.696;2023-04-16T07:09:21;9.50;99.90
22742;DHT22;11538;48.884;8.696;2023-04-16T07:11:48;9.50;99.90
22742;DHT22;11538;48.884;8.696;2023-04-16T07:14:14;9.60;99.90
22742;DHT22;11538;48.884;8.696;2023-04-16T07:16:41;9.60;99.90
22742;DHT22;11538;48.884;8.696;2023-04-16T07:19:08;9.60;99.90
22742;DHT22;11538;48.884;8.696;2023-04-16T07:21:36;9.60;99.90
22742;DHT22;11538;48.884;8.696;2023-04-16T07:24:03;9.60;99.90
22742;DHT22;11538;48.884;8.696;2023-04-16T07:26:30;9.60;99.90
22742;DHT22;11538;48.884;8.696;2023-04-16T07:28:58;9.70;99.90
22742;DHT22;11538;48.884;8.696;2023-04-16T07:31:25;9.70;99.90
22742;DHT22;11538;48.884;8.696;2023-04-16T07:33:53;9.70;99.90
22742;DHT22;11538;48.884;8.696;2023-04-16T07:36:20;9.70;99.90
22742;DHT22;11538;48.884;8.696;2023-04-16T07:38:46;9.80;99.90
22742;DHT22;11538;48.884;8.696;2023-04-16T07:41:13;9.80;99.90
22742;DHT22;11538;48.884;8.696;2023-04-16T07:43:40;9.80;99.90
22742;DHT22;11538;48.884;8.696;2023-04-16T07:46:07;9.80;99.90
22742;DHT22;11538;48.884;8.696;2023-04-16T07:48:34;9.90;99.90
22742;DHT22;11538;48.884;8.696;2023-04-16T07:51:01;9.90;99.90
22742;DHT22;11538;48.884;8.696;2023-04-16T07:53:28;9.90;99.90
22742;DHT22;11538;48.884;8.696;2023-04-16T07:55:55;9.90;99.90
22742;DHT22;11538;48.884;8.696;2023-04-16T07:58:21;9.90;99.90
22742;DHT22;11538;48.884;8.696;2023-04-16T08:00:48;9.90;99.90
22742;DHT22;11538;48.884;8.696;2023-04-16T08:03:16;9.90;99.90
22742;DHT22;11538;48.884;8.696;2023-04-16T08:05:44;10.00;99.90
22742;DHT22;11538;48.884;8.696;2023-04-16T08:08:11;10.00;99.90
22742;DHT22;11538;48.884;8.696;2023-04-16T08:10:38;10.10;99.90
22742;DHT22;11538;48.884;8.696;2023-04-16T08:13:05;10.10;99.90
22742;DHT22;11538;48.884;8.696;2023-04-16T08:15:32;10.10;99.90
22742;DHT22;11538;48.884;8.696;2023-04-16T08:17:59;10.20;99.90
22742;DHT22;11538;48.884;8.696;2023-04-16T08:20:26;10.20;99.90
22742;DHT22;11538;48.884;8.696;2023-04-16T08:22:53;10.20;99.90
22742;DHT22;11538;48.884;8.696;2023-04-16T08:25:20;10.20;99.90
22742;DHT22;11538;48.884;8.696;2023-04-16T08:27:49;10.30;99.90
22742;DHT22;11538;48.884;8.696;2023-04-16T08:30:16;10.30;99.90
22742;DHT22;11538;48.884;8.696;2023-04-16T08:32:43;10.30;99.90
22742;DHT22;11538;48.884;8.696;2023-04-16T08:35:10;10.30;99.90
22742;DHT22;11538;48.884;8.696;2023-04-16T08:37:40;10.40;99.90
22742;DHT22;11538;48.884;8.696;2023-04-16T08:40:07;10.40;99.90
22742;DHT22;11538;48.884;8.696;2023-04-16T08:42:54;10.40;99.90
22742;DHT22;11538;48.884;8.696;2023-04-16T08:45:26;10.50;99.90
22742;DHT22;11538;48.884;8.696;2023-04-16T08:47:53;10.50;99.90
22742;DHT22;11538;48.884;8.696;2023-04-16T08:50:24;10.50;99.90
22742;DHT22;11538;48.884;8.696;2023-04-16T08:53:03;10.50;99.90
22742;DHT22;11538;48.884;8.696;2023-04-16T08:55:46;10.50;99.90
22742;DHT22;11538;48.884;8.696;2023-04-16T08:58:17;10.50;99.90
22742;DHT22;11538;48.884;8.696;2023-04-16T09:00:49;10.50;99.90
22742;DHT22;11538;48.884;8.696;2023-04-16T09:03:17;10.50;99.90
22742;DHT22;11538;48.884;8.696;2023-04-16T09:05:48;10.40;99.90
22742;DHT22;11538;48.884;8.696;2023-04-16T09:08:16;10.40;99.90
22742;DHT22;11538;48.884;8.696;2023-04-16T09:10:43;10.50;99.90
22742;DHT22;11538;48.884;8.696;2023-04-16T09:13:11;10.50;99.90
22742;DHT22;11538;48.884;8.696;2023-04-16T09:15:40;10.50;99.90
22742;DHT22;11538;48.884;8.696;2023-04-16T09:18:07;10.50;99.90
22742;DHT22;11538;48.884;8.696;2023-04-16T09:20:35;10.40;99.90
22742;DHT22;11538;48.884;8.696;2023-04-16T09:23:02;10.40;99.90
22742;DHT22;11538;48.884;8.696;2023-04-16T09:25:33;10.40;99.90
22742;DHT22;11538;48.884;8.696;2023-04-16T09:28:00;10.40;99.90
22742;DHT22;11538;48.884;8.696;2023-04-16T09:30:27;10.40;99.90
22742;DHT22;11538;48.884;8.696;2023-04-16T09:33:15;10.40;99.90
22742;DHT22;11538;48.884;8.696;2023-04-16T09:35:49;10.40;99.90
22742;DHT22;11538;48.884;8.696;2023-04-16T09:38:19;10.40;99.90
22742;DHT22;11538;48.884;8.696;2023-04-16T09:40:46;10.50;99.90
22742;DHT22;11538;48.884;8.696;2023-04-16T09:43:17;10.50;99.90
22742;DHT22;11538;48.884;8.696;2023-04-16T09:45:51;10.50;99.90
22742;DHT22;11538;48.884;8.696;2023-04-16T09:48:31;10.50;99.90
22742;DHT22;11538;48.884;8.696;2023-04-16T09:50:59;10.50;99.90
22742;DHT22;11538;48.884;8.696;2023-04-16T09:53:30;10.50;99.90
22742;DHT22;11538;48.884;8.696;2023-04-16T09:55:59;10.60;99.90
22742;DHT22;11538;48.884;8.696;2023-04-16T09:58:28;10.60;99.90
22742;DHT22;11538;48.884;8.696;2023-04-16T10:01:02;10.60;99.90
22742;DHT22;11538;48.884;8.696;2023-04-16T10:03:38;10.60;99.90
22742;DHT22;11538;48.884;8.696;2023-04-16T10:06:07;10.60;99.90
22742;DHT22;11538;48.884;8.696;2023-04-16T10:08:49;10.60;99.90
22742;DHT22;11538;48.884;8.696;2023-04-16T10:11:23;10.60;99.90
22742;DHT22;11538;48.884;8.696;2023-04-16T10:13:50;10.60;99.90
22742;DHT22;11538;48.884;8.696;2023-04-16T10:16:17;10.60;99.90
22742;DHT22;11538;48.884;8.696;2023-04-16T10:18:45;10.60;99.90
22742;DHT22;11538;48.884;8.696;2023-04-16T10:21:12;10.60;99.90
22742;DHT22;11538;48.884;8.696;2023-04-16T10:23:42;10.60;99.90
22742;DHT22;11538;48.884;8.696;2023-04-16T10:26:09;10.60;99.90
22742;DHT22;11538;48.884;8.696;2023-04-16T10:28:37;10.60;99.90
22742;DHT22;11538;48.884;8.696;2023-04-16T10:31:07;10.50;99.90
22742;DHT22;11538;48.884;8.696;2023-04-16T10:33:38;10.60;99.90
22742;DHT22;11538;48.884;8.696;2023-04-16T10:38:51;10.60;99.90
22742;DHT22;11538;48.884;8.696;2023-04-16T10:41:19;10.60;99.90
22742;DHT22;11538;48.884;8.696;2023-04-16T10:43:50;10.50;99.90
22742;DHT22;11538;48.884;8.696;2023-04-16T10:46:30;10.50;99.90
22742;DHT22;11538;48.884;8.696;2023-04-16T10:49:12;10.50;99.90
22742;DHT22;11538;48.884;8.696;2023-04-16T10:51:41;10.60;99.90
22742;DHT22;11538;48.884;8.696;2023-04-16T10:56:35;10.60;99.90
22742;DHT22;11538;48.884;8.696;2023-04-16T10:59:07;10.60;99.90
22742;DHT22;11538;48.884;8.696;2023-04-16T11:01:40;10.60;99.90
22742;DHT22;11538;48.884;8.696;2023-04-16T11:07:13;10.60;99.90
22742;DHT22;11538;48.884;8.696;2023-04-16T11:12:26;10.60;99.90
22742;DHT22;11538;48.884;8.696;2023-04-16T11:15:03;10.60;99.90
22742;DHT22;11538;48.884;8.696;2023-04-16T11:17:41;10.60;99.90
22742;DHT22;11538;48.884;8.696;2023-04-16T11:20:14;10.60;99.90
22742;DHT22;11538;48.884;8.696;2023-04-16T11:22:48;10.60;99.90
22742;DHT22;11538;48.884;8.696;2023-04-16T11:25:26;10.60;99.90
22742;DHT22;11538;48.884;8.696;2023-04-16T11:27:56;10.60;99.90
22742;DHT22;11538;48.884;8.696;2023-04-16T11:30:36;10.70;99.90
22742;DHT22;11538;48.884;8.696;2023-04-16T11:35:33;10.70;99.90
22742;DHT22;11538;48.884;8.696;2023-04-16T11:38:00;10.70;99.90
22742;DHT22;11538;48.884;8.696;2023-04-16T11:40:29;10.70;99.90
22742;DHT22;11538;48.884;8.696;2023-04-16T11:43:14;10.80;99.90
22742;DHT22;11538;48.884;8.696;2023-04-16T11:46:03;10.80;99.90
22742;DHT22;11538;48.884;8.696;2023-04-16T11:48:52;10.90;99.90
22742;DHT22;11538;48.884;8.696;2023-04-16T11:51:21;10.90;99.90
22742;DHT22;11538;48.884;8.696;2023-04-16T11:53:52;11.00;99.90
22742;DHT22;11538;48.884;8.696;2023-04-16T11:56:26;11.00;99.90
22742;DHT22;11538;48.884;8.696;2023-04-16T11:59:15;11.10;99.90
22742;DHT22;11538;48.884;8.696;2023-04-16T12:01:52;11.10;99.90
22742;DHT22;11538;48.884;8.696;2023-04-16T12:04:25;11.10;99.90
22742;DHT22;11538;48.884;8.696;2023-04-16T12:07:12;11.00;99.90
22742;DHT22;11538;48.884;8.696;2023-04-16T12:09:41;11.00;99.90
22742;DHT22;11538;48.884;8.696;2023-04-16T12:12:29;11.10;99.90
22742;DHT22;11538;48.884;8.696;2023-04-16T12:14:57;11.10;99.90
22742;DHT22;11538;48.884;8.696;2023-04-16T12:17:25;11.00;99.90
22742;DHT22;11538;48.884;8.696;2023-04-16T12:19:57;11.00;99.90
22742;DHT22;11538;48.884;8.696;2023-04-16T12:22:31;11.00;99.90
22742;DHT22;11538;48.884;8.696;2023-04-16T12:25:05;11.00;99.90
22742;DHT22;11538;48.884;8.696;2023-04-16T12:30:09;10.90;99.90
22742;DHT22;11538;48.884;8.696;2023-04-16T12:32:36;10.90;99.90
22742;DHT22;11538;48.884;8.696;2023-04-16T12:35:03;10.90;99.90
22742;DHT22;11538;48.884;8.696;2023-04-16T12:37:32;10.80;99.90
22742;DHT22;11538;48.884;8.696;2023-04-16T12:39:59;10.80;99.90
22742;DHT22;11538;48.884;8.696;2023-04-16T12:42:26;10.80;99.90
22742;DHT22;11538;48.884;8.696;2023-04-16T12:44:53;10.80;99.90
22742;DHT22;11538;48.884;8.696;2023-04-16T12:47:19;10.70;99.90
22742;DHT22;11538;48.884;8.696;2023-04-16T12:49:49;10.70;99.90
22742;DHT22;11538;48.884;8.696;2023-04-16T12:52:16;10.60;99.90
22742;DHT22;11538;48.884;8.696;2023-04-16T12:54:43;10.60;99.90
22742;DHT22;11538;48.884;8.696;2023-04-16T12:57:10;10.60;99.90
22742;DHT22;11538;48.884;8.696;2023-04-16T12:59:37;10.50;99.90
22742;DHT22;11538;48.884;8.696;2023-04-16T13:02:04;10.50;99.90
22742;DHT22;11538;48.884;8.696;2023-04-16T13:04:33;10.40;99.90
22742;DHT22;11538;48.884;8.696;2023-04-16T13:07:00;10.40;99.90
22742;DHT22;11538;48.884;8.696;2023-04-16T13:09:27;10.40;99.90
22742;DHT22;11538;48.884;8.696;2023-04-16T13:11:54;10.30;99.90
22742;DHT22;11538;48.884;8.696;2023-04-16T13:14:21;10.30;99.90
22742;DHT22;11538;48.884;8.696;2023-04-16T13:16:48;10.30;99.90
22742;DHT22;11538;48.884;8.696;2023-04-16T13:19:16;10.30;99.90
22742;DHT22;11538;48.884;8.696;2023-04-16T13:21:44;10.30;99.90
22742;DHT22;11538;48.884;8.696;2023-04-16T13:24:11;10.30;99.90
22742;DHT22;11538;48.884;8.696;2023-04-16T13:26:38;10.30;99.90
22742;DHT22;11538;48.884;8.696;2023-04-16T13:29:04;10.40;99.90
22742;DHT22;11538;48.884;8.696;2023-04-16T13:31:31;10.40;99.90
22742;DHT22;11538;48.884;8.696;2023-04-16T13:33:58;10.40;99.90
22742;DHT22;11538;48.884;8.696;2023-04-16T13:36:25;10.40;99.90
22742;DHT22;11538;48.884;8.696;2023-04-16T13:38:53;10.40;99.90
22742;DHT22;11538;48.884;8.696;2023-04-16T13:41:20;10.40;99.90
22742;DHT22;11538;48.884;8.696;2023-04-16T13:43:47;10.40;99.90
22742;DHT22;11538;48.884;8.696;2023-04-16T13:46:14;10.40;99.90
22742;DHT22;11538;48.884;8.696;2023-04-16T13:48:41;10.40;99.90
22742;DHT22;11538;48.884;8.696;2023-04-16T13:51:07;10.40;99.90
22742;DHT22;11538;48.884;8.696;2023-04-16T13:53:34;10.50;99.90
22742;DHT22;11538;48.884;8.696;2023-04-16T13:56:05;10.50;99.90
22742;DHT22;11538;48.884;8.696;2023-04-16T13:58:33;10.50;99.90
22742;DHT22;11538;48.884;8.696;2023-04-16T14:01:00;10.50;99.90
22742;DHT22;11538;48.884;8.696;2023-04-16T14:03:27;10.50;99.90
22742;DHT22;11538;48.884;8.696;2023-04-16T14:05:54;10.50;99.90
22742;DHT22;11538;48.884;8.696;2023-04-16T14:08:20;10.50;99.90
22742;DHT22;11538;48.884;8.696;2023-04-16T14:10:47;10.40;99.90
22742;DHT22;11538;48.884;8.696;2023-04-16T14:13:14;10.50;99.90
22742;DHT22;11538;48.884;8.696;2023-04-16T14:15:41;10.40;99.90
22742;DHT22;11538;48.884;8.696;2023-04-16T14:18:08;10.40;99.90
22742;DHT22;11538;48.884;8.696;2023-04-16T14:20:35;10.40;99.90
22742;DHT22;11538;48.884;8.696;2023-04-16T14:23:02;10.40;99.90
22742;DHT22;11538;48.884;8.696;2023-04-16T14:25:29;10.40;99.90
22742;DHT22;11538;48.884;8.696;2023-04-16T14:27:58;10.40;99.90
22742;DHT22;11538;48.884;8.696;2023-04-16T14:30:26;10.40;99.90
22742;DHT22;11538;48.884;8.696;2023-04-16T14:32:53;10.30;99.90
22742;DHT22;11538;48.884;8.696;2023-04-16T14:35:19;10.30;99.90
22742;DHT22;11538;48.884;8.696;2023-04-16T14:37:46;10.30;99.90
22742;DHT22;11538;48.884;8.696;2023-04-16T14:40:13;10.30;99.90
22742;DHT22;11538;48.884;8.696;2023-04-16T14:42:40;10.30;99.90
22742;DHT22;11538;48.884;8.696;2023-04-16T14:45:08;10.30;99.90
22742;DHT22;11538;48.884;8.696;2023-04-16T14:47:35;10.30;99.90
22742;DHT22;11538;48.884;8.696;2023-04-16T14:50:04;10.30;99.90
22742;DHT22;11538;48.884;8.696;2023-04-16T14:52:32;10.30;99.90
22742;DHT22;11538;48.884;8.696;2023-04-16T14:54:58;10.30;99.90
22742;DHT22;11538;48.884;8.696;2023-04-16T14:57:25;10.20;99.90
22742;DHT22;11538;48.884;8.696;2023-04-16T14:59:52;10.20;99.90
22742;DHT22;11538;48.884;8.696;2023-04-16T15:02:20;10.20;99.90
22742;DHT22;11538;48.884;8.696;2023-04-16T15:04:47;10.20;99.90
22742;DHT22;11538;48.884;8.696;2023-04-16T15:07:15;10.20;99.90
22742;DHT22;11538;48.884;8.696;2023-04-16T15:09:43;10.20;99.90
22742;DHT22;11538;48.884;8.696;2023-04-16T15:12:10;10.20;99.90
22742;DHT22;11538;48.884;8.696;2023-04-16T15:14:37;10.20;99.90
22742;DHT22;11538;48.884;8.696;2023-04-16T15:17:04;10.20;99.90
22742;DHT22;11538;48.884;8.696;2023-04-16T15:19:31;10.20;99.90
22742;DHT22;11538;48.884;8.696;2023-04-16T15:21:58;10.20;99.90
22742;DHT22;11538;48.884;8.696;2023-04-16T15:24:26;10.20;99.90
22742;DHT22;11538;48.884;8.696;2023-04-16T15:26:53;10.20;99.90
22742;DHT22;11538;48.884;8.696;2023-04-16T15:29:20;10.20;99.90
22742;DHT22;11538;48.884;8.696;2023-04-16T15:31:47;10.20;99.90
22742;DHT22;11538;48.884;8.696;2023-04-16T15:34:13;10.20;99.90
22742;DHT22;11538;48.884;8.696;2023-04-16T15:36:41;10.20;99.90
22742;DHT22;11538;48.884;8.696;2023-04-16T15:39:07;10.20;99.90
22742;DHT22;11538;48.884;8.696;2023-04-16T15:41:35;10.20;99.90
22742;DHT22;11538;48.884;8.696;2023-04-16T15:44:23;10.20;99.90
22742;DHT22;11538;48.884;8.696;2023-04-16T15:46:50;10.20;99.90
22742;DHT22;11538;48.884;8.696;2023-04-16T15:49:18;10.20;99.90
22742;DHT22;11538;48.884;8.696;2023-04-16T15:51:45;10.20;99.90
22742;DHT22;11538;48.884;8.696;2023-04-16T15:54:12;10.20;99.90
22742;DHT22;11538;48.884;8.696;2023-04-16T15:56:42;10.20;99.90
22742;DHT22;11538;48.884;8.696;2023-04-16T15:59:08;10.20;99.90
22742;DHT22;11538;48.884;8.696;2023-04-16T16:01:36;10.30;99.90